createdAt,value
2023-05-15T00:03:13.067Z,20.95
2023-05-15T00:08:17.086Z,17.60
2023-05-15T00:13:22.082Z,18.95
2023-05-15T00:18:26.247Z,17.00
2023-05-15T00:23:30.520Z,19.73
2023-05-15T00:28:34.439Z,27.48
2023-05-15T00:33:38.554Z,20.77
2023-05-15T00:38:42.482Z,17.35
2023-05-15T00:43:47.644Z,16.92
2023-05-15T00:48:52.465Z,15.30
2023-05-15T00:53:57.405Z,18.58
2023-05-15T00:59:07.515Z,17.48
2023-05-15T01:04:12.220Z,13.55
2023-05-15T01:09:17.063Z,13.43
2023-05-15T01:14:21.044Z,11.82
2023-05-15T01:19:25.201Z,8.63
2023-05-15T01:24:54.241Z,10.55
2023-05-15T01:30:21.566Z,8.67
2023-05-15T01:35:35.517Z,7.75
2023-05-15T01:40:40.227Z,9.38
2023-05-15T01:45:46.803Z,9.88
2023-05-15T01:50:55.563Z,9.23
2023-05-15T01:56:00.964Z,8.20
2023-05-15T02:01:06.746Z,8.07
2023-05-15T02:06:13.376Z,6.40
2023-05-15T02:11:17.495Z,8.93
2023-05-15T02:16:23.045Z,9.82
2023-05-15T02:21:27.237Z,5.75
2023-05-15T02:27:03.814Z,5.30
2023-05-15T02:32:49.030Z,5.65
2023-05-15T02:37:57.674Z,6.55
2023-05-15T02:43:03.654Z,7.17
2023-05-15T02:48:09.828Z,6.95
2023-05-15T02:53:15.229Z,5.22
2023-05-15T02:58:19.564Z,6.50
2023-05-15T03:03:23.546Z,6.43
2023-05-15T03:08:27.856Z,7.70
2023-05-15T03:13:31.757Z,7.80
2023-05-15T03:18:35.849Z,5.90
2023-05-15T03:23:39.887Z,7.07
2023-05-15T03:28:45.631Z,5.50
2023-05-15T03:33:50.880Z,6.97
2023-05-15T03:38:54.858Z,6.38
2023-05-15T03:43:58.871Z,9.02
2023-05-15T03:49:02.883Z,5.70
2023-05-15T03:54:07.679Z,5.72
2023-05-15T03:59:11.833Z,5.57
2023-05-15T04:04:16.138Z,6.75
2023-05-15T04:09:20.325Z,6.97
2023-05-15T04:14:24.175Z,6.85
2023-05-15T04:19:28.181Z,6.97
2023-05-15T04:24:32.213Z,5.38
2023-05-15T04:29:36.244Z,5.47
2023-05-15T04:34:41.648Z,5.68
2023-05-15T04:39:45.529Z,5.20
2023-05-15T04:44:49.635Z,6.03
2023-05-15T04:49:53.785Z,7.47
2023-05-15T04:54:57.847Z,6.00
2023-05-15T05:00:02.224Z,6.00
2023-05-15T05:05:09.178Z,4.78
2023-05-15T05:10:14.020Z,6.45
2023-05-15T05:15:18.226Z,6.35
2023-05-15T05:20:22.102Z,4.15
2023-05-15T05:25:26.562Z,7.15
2023-05-15T05:30:30.702Z,3.42
2023-05-15T05:35:34.460Z,3.30
2023-05-15T05:40:39.259Z,3.25
2023-05-15T05:45:43.266Z,4.18
2023-05-15T05:50:47.425Z,3.30
2023-05-15T05:55:51.402Z,4.07
2023-05-15T06:00:55.731Z,3.45
2023-05-15T06:06:00.158Z,5.22
2023-05-15T06:11:04.322Z,3.50
2023-05-15T06:16:08.458Z,3.05
2023-05-15T06:21:12.385Z,4.47
2023-05-15T06:26:16.475Z,4.07
2023-05-15T06:31:20.690Z,3.70
2023-05-15T06:36:24.715Z,5.10
2023-05-15T06:41:28.803Z,7.20
2023-05-15T06:46:32.716Z,3.90
2023-05-15T06:51:36.838Z,4.50
2023-05-15T06:56:40.963Z,3.50
2023-05-15T07:01:45.136Z,6.13
2023-05-15T07:06:49.262Z,2.97
2023-05-15T07:11:53.193Z,3.35
2023-05-15T07:16:57.451Z,4.35
2023-05-15T07:22:03.197Z,3.53
2023-05-15T07:27:07.810Z,5.07
2023-05-15T07:32:11.855Z,5.63
2023-05-15T07:37:16.979Z,4.88
2023-05-15T07:42:22.358Z,4.05
2023-05-15T07:47:26.228Z,4.63
2023-05-15T07:52:30.495Z,5.40
2023-05-15T07:57:34.333Z,6.07
2023-05-15T08:02:38.772Z,4.90
2023-05-15T08:07:42.749Z,4.90
2023-05-15T08:12:48.218Z,5.22
2023-05-15T08:17:52.200Z,5.03
2023-05-15T08:22:56.411Z,7.32
2023-05-15T08:28:00.566Z,6.22
2023-05-15T08:33:04.786Z,6.40
2023-05-15T08:38:09.047Z,5.78
2023-05-15T08:43:19.398Z,7.03
2023-05-15T08:48:29.091Z,5.30
2023-05-15T08:53:33.238Z,8.27
2023-05-15T08:58:37.394Z,6.13
2023-05-15T09:03:42.200Z,6.63
2023-05-15T09:08:47.280Z,6.70
2023-05-15T09:13:51.432Z,7.68
2023-05-15T09:18:55.387Z,8.50
2023-05-15T09:24:38.942Z,10.55
2023-05-15T09:29:43.039Z,9.73
2023-05-15T09:34:47.476Z,11.88
2023-05-15T09:39:51.456Z,10.73
2023-05-15T09:44:55.330Z,11.70
2023-05-15T09:49:59.496Z,13.15
2023-05-15T09:55:03.532Z,10.75
2023-05-15T10:00:12.802Z,11.25
2023-05-15T10:05:17.613Z,11.23
2023-05-15T10:10:22.152Z,9.45
2023-05-15T10:27:13.155Z,8.35
2023-05-15T10:32:18.246Z,7.18
2023-05-15T10:37:24.022Z,7.75
2023-05-15T10:42:30.503Z,7.82
2023-05-15T10:47:35.279Z,8.10
2023-05-15T10:52:40.261Z,6.78
2023-05-15T10:57:48.277Z,6.25
2023-05-15T11:02:57.517Z,8.57
2023-05-15T11:08:19.108Z,7.45
2023-05-15T11:13:23.102Z,7.00
2023-05-15T11:18:27.222Z,6.13
2023-05-15T11:23:40.984Z,7.30
2023-05-15T11:28:45.319Z,9.30
2023-05-15T11:33:52.528Z,10.32
2023-05-15T11:38:57.278Z,10.77
2023-05-15T11:44:02.479Z,9.95
2023-05-15T11:49:06.799Z,7.60
2023-05-15T11:54:14.002Z,6.63
2023-05-15T11:59:17.876Z,13.65
2023-05-15T12:04:22.144Z,8.10
2023-05-15T12:09:28.539Z,7.35
2023-05-15T12:14:34.318Z,7.53
2023-05-15T12:19:40.044Z,7.47
2023-05-15T12:24:43.942Z,7.07
2023-05-15T12:29:48.218Z,8.75
2023-05-15T12:34:52.366Z,9.05
2023-05-15T12:40:05.760Z,9.02
2023-05-15T12:45:17.800Z,8.15
2023-05-15T12:50:24.035Z,7.25
2023-05-15T12:55:33.340Z,8.15
2023-05-15T13:00:40.245Z,8.30
2023-05-15T13:05:46.058Z,8.00
2023-05-15T13:11:01.669Z,8.32
2023-05-15T13:16:07.479Z,6.25
2023-05-15T13:21:12.703Z,8.65
2023-05-15T13:26:16.651Z,11.15
2023-05-15T13:31:20.906Z,9.90
2023-05-15T13:36:24.882Z,11.07
2023-05-15T13:41:29.160Z,18.50
2023-05-15T13:46:33.161Z,23.95
2023-05-15T13:51:37.386Z,16.83
2023-05-15T13:56:41.523Z,13.10
2023-05-15T14:01:46.370Z,11.18
2023-05-15T14:06:50.443Z,15.15
2023-05-15T14:11:54.356Z,11.85
2023-05-15T14:16:58.470Z,14.25
2023-05-15T14:22:02.463Z,13.63
2023-05-15T14:27:06.847Z,11.32
2023-05-15T14:32:11.057Z,11.98
2023-05-15T14:37:15.292Z,15.35
2023-05-15T14:42:21.678Z,18.58
2023-05-15T14:47:28.663Z,16.25
2023-05-15T14:52:32.791Z,11.68
2023-05-15T14:57:36.874Z,11.07
2023-05-15T15:02:41.147Z,17.83
2023-05-15T15:08:07.584Z,14.55
2023-05-15T15:13:14.356Z,16.60
2023-05-15T15:18:18.801Z,18.55
2023-05-15T15:23:23.553Z,14.57
2023-05-15T15:28:30.027Z,14.20
2023-05-15T15:33:33.978Z,11.85
2023-05-15T15:38:38.146Z,12.20
2023-05-15T15:43:42.347Z,27.52
2023-05-15T15:48:46.264Z,12.90
2023-05-15T15:53:50.360Z,15.77
2023-05-15T15:58:54.280Z,14.77
2023-05-15T16:03:58.560Z,13.63
2023-05-15T16:09:02.840Z,14.23
2023-05-15T16:14:06.822Z,13.43
2023-05-15T16:19:10.960Z,15.85
2023-05-15T16:24:15.183Z,18.38
2023-05-15T16:29:19.751Z,15.68
2023-05-15T16:34:23.767Z,20.58
2023-05-15T16:39:27.857Z,20.00
2023-05-15T16:44:33.188Z,17.38
2023-05-15T16:49:37.192Z,20.92
2023-05-15T16:54:42.678Z,12.00
2023-05-15T16:59:46.652Z,16.55
2023-05-15T17:04:50.623Z,13.60
2023-05-15T17:09:55.605Z,14.15
2023-05-15T17:14:59.658Z,12.23
2023-05-15T17:20:04.643Z,13.13
2023-05-15T17:25:09.763Z,11.68
2023-05-15T17:30:13.980Z,11.23
2023-05-15T17:35:18.266Z,11.02
2023-05-15T17:40:22.303Z,15.65
2023-05-15T17:45:27.635Z,10.50
2023-05-15T17:50:32.044Z,12.43
2023-05-15T17:55:36.304Z,10.85
2023-05-15T18:00:40.329Z,12.32
2023-05-15T18:05:47.589Z,8.90
2023-05-15T18:10:51.607Z,13.80
2023-05-15T18:15:55.708Z,11.40
2023-05-15T18:20:59.892Z,14.52
2023-05-15T18:26:03.811Z,18.65
2023-05-15T18:31:08.953Z,14.80
2023-05-15T18:36:13.040Z,11.20
2023-05-15T18:41:17.014Z,17.40
2023-05-15T18:46:21.278Z,11.43
2023-05-15T18:51:25.151Z,13.00
2023-05-15T18:56:29.346Z,13.93
2023-05-15T19:01:33.338Z,13.70
2023-05-15T19:06:37.507Z,12.98
2023-05-15T19:11:42.043Z,14.52
2023-05-15T19:16:46.879Z,15.27
2023-05-15T19:21:52.844Z,14.25
2023-05-15T19:26:56.799Z,16.52
2023-05-15T19:32:02.168Z,21.40
2023-05-15T19:37:06.526Z,19.38
2023-05-15T19:42:10.654Z,17.88
2023-05-15T19:47:14.768Z,15.20
2023-05-15T19:52:20.598Z,18.30
2023-05-15T19:57:24.468Z,21.38
2023-05-15T20:02:28.518Z,18.05
2023-05-15T20:07:32.675Z,18.73
2023-05-15T20:12:36.911Z,21.35
2023-05-15T20:17:42.386Z,23.67
2023-05-15T20:22:46.489Z,21.70
2023-05-15T20:27:50.529Z,27.15
2023-05-15T20:32:54.739Z,22.35
2023-05-15T20:37:59.186Z,23.90
2023-05-15T20:43:03.066Z,21.30
2023-05-15T20:48:09.294Z,26.95
2023-05-15T20:53:13.951Z,21.45
2023-05-15T20:58:18.000Z,28.15
2023-05-15T21:03:21.961Z,23.45
2023-05-15T21:08:26.048Z,23.27
2023-05-15T21:13:30.103Z,29.60
2023-05-15T21:18:34.270Z,22.75
2023-05-15T21:23:38.530Z,19.17
2023-05-15T21:28:42.590Z,21.95
2023-05-15T21:33:46.796Z,20.15
2023-05-15T21:38:50.811Z,22.10
2023-05-15T21:43:54.789Z,19.00
2023-05-15T21:49:00.087Z,21.83
2023-05-15T21:54:04.926Z,22.75
2023-05-15T21:59:09.091Z,22.08
2023-05-15T22:04:13.400Z,19.63
2023-05-15T22:09:17.557Z,26.23
2023-05-15T22:14:21.881Z,27.60
2023-05-15T22:19:32.975Z,23.05
2023-05-15T22:24:37.899Z,27.80
2023-05-15T22:29:41.958Z,16.35
2023-05-15T22:34:45.870Z,16.83
2023-05-15T22:39:49.994Z,10.98
2023-05-15T22:44:56.073Z,13.23
2023-05-15T22:50:00.297Z,10.98
2023-05-15T22:55:04.359Z,14.38
2023-05-15T23:00:10.854Z,11.18
2023-05-15T23:05:15.274Z,11.18
2023-05-15T23:10:19.425Z,11.55
2023-05-15T23:15:23.735Z,11.50
2023-05-15T23:20:28.061Z,14.95
2023-05-15T23:25:32.721Z,10.65
2023-05-15T23:30:36.729Z,17.38
2023-05-15T23:35:41.261Z,17.88
2023-05-15T23:40:45.171Z,14.32
2023-05-15T23:45:49.262Z,17.02
2023-05-15T23:50:53.805Z,16.50
2023-05-15T23:55:57.800Z,13.85
